Time;durP1;ratioP1;P1;durP2;ratioP2;P2;SDS_P1;SDS_P2;PMS_P1;PMS_P2;Temp;Humidity;BMP_temperature;BMP_pressure;BME280_temperature;BME280_humidity;BME280_pressure;Samples;Min_cycle;Max_cycle;Signal;HPM_P1;HPM_P2
2022/05/08 00:01:49;;;;;;;;;27.00;27.00;;;;;16.48;60.27;101849.50;4998724;28;45836;-70
2022/05/08 00:04:15;;;;;;;;;24.33;22.33;;;;;17.01;60.31;101938.06;5016330;28;45434;-70
2022/05/08 00:06:40;;;;;;;;;27.33;26.33;;;;;16.99;60.44;101931.16;5016130;28;45471;-69
2022/05/08 00:09:05;;;;;;;;;28.67;24.33;;;;;16.86;60.17;101907.41;4998967;28;45883;-70
2022/05/08 00:11:31;;;;;;;;;25.33;22.67;;;;;16.94;60.23;101925.41;5016802;28;45298;-69
2022/05/08 00:13:56;;;;;;;;;19.33;19.33;;;;;16.92;60.10;101917.53;5017022;28;45504;-71
2022/05/08 00:16:22;;;;;;;;;23.67;22.00;;;;;16.99;59.96;101934.69;5013942;28;45444;-69
2022/05/08 00:18:48;;;;;;;;;27.67;26.00;;;;;16.72;60.73;101927.59;5006831;28;45775;-70
2022/05/08 00:21:13;;;;;;;;;27.33;21.33;;;;;16.76;60.79;101940.72;5006715;28;45381;-69
2022/05/08 00:23:39;;;;;;;;;24.00;22.00;;;;;16.69;61.12;101938.66;5016447;28;45315;-69
2022/05/08 00:26:13;;;;;;;;;24.33;20.33;;;;;16.35;61.01;101875.91;5015713;28;45525;-70
2022/05/08 00:28:38;;;;;;;;;27.33;22.67;;;;;16.46;61.07;101905.19;5016118;28;45482;-69
2022/05/08 00:31:08;;;;;;;;;21.67;20.67;;;;;16.65;61.36;101931.03;5015368;28;45922;-70
2022/05/08 00:33:33;;;;;;;;;23.00;21.00;;;;;16.57;61.77;101934.47;5016514;28;45507;-69
2022/05/08 00:35:59;;;;;;;;;24.33;21.33;;;;;16.09;61.70;101854.38;5017092;28;45523;-69
2022/05/08 00:38:24;;;;;;;;;26.33;24.67;;;;;16.41;60.94;101899.44;5016697;28;45814;-69
2022/05/08 00:40:50;;;;;;;;;27.33;25.33;;;;;16.57;61.58;101937.16;5013245;28;45369;-71
2022/05/08 00:43:34;;;;;;;;;28.67;23.33;;;;;16.37;61.96;101916.84;5016481;28;45533;-70
2022/05/08 00:46:02;;;;;;;;;21.67;19.00;;;;;16.36;61.93;101920.53;5017148;28;45458;-72
2022/05/08 00:48:27;;;;;;;;;27.33;25.33;;;;;16.50;61.73;101938.78;5014553;28;48557;-69
2022/05/08 00:50:57;;;;;;;;;20.33;20.33;;;;;16.42;61.67;101922.63;5016927;28;45388;-70
2022/05/08 00:53:25;;;;;;;;;24.33;22.00;;;;;16.47;62.04;101928.38;5016240;28;45223;-71
2022/05/08 00:55:51;;;;;;;;;23.67;22.67;;;;;16.20;62.20;101899.72;5016839;28;45495;-71
2022/05/08 00:58:16;;;;;;;;;27.00;20.00;;;;;16.18;62.92;101925.03;5016450;28;46285;-70
2022/05/08 01:00:42;;;;;;;;;21.67;20.33;;;;;15.40;63.04;101814.69;5013213;28;45503;-71
2022/05/08 01:03:08;;;;;;;;;31.67;28.33;;;;;15.84;63.42;101893.50;4998818;28;45409;-70
2022/05/08 01:05:41;;;;;;;;;22.33;21.67;;;;;16.04;63.25;101940.66;5017341;28;45396;-69
2022/05/08 01:08:07;;;;;;;;;22.00;22.00;;;;;15.82;63.22;101895.50;5015458;28;46538;-70
2022/05/08 01:10:32;;;;;;;;;26.67;23.67;;;;;15.93;63.47;101929.28;5023058;28;46125;-69
2022/05/08 01:12:57;;;;;;;;;23.67;21.67;;;;;15.83;64.09;101929.38;5019987;28;45424;-71
2022/05/08 01:15:23;;;;;;;;;25.67;23.33;;;;;15.66;64.22;101900.66;5016605;28;45389;-70
2022/05/08 01:17:53;;;;;;;;;21.33;20.00;;;;;15.80;64.00;101935.84;5016651;28;45256;-69
2022/05/08 01:20:18;;;;;;;;;23.67;23.00;;;;;15.09;64.12;101822.19;5034964;28;45722;-70
2022/05/08 01:22:43;;;;;;;;;24.33;22.67;;;;;15.70;64.38;101934.22;5019252;28;45406;-70
2022/05/08 01:25:16;;;;;;;;;26.00;22.33;;;;;14.97;64.09;101802.75;5025162;28;45248;-70
2022/05/08 01:27:43;;;;;;;;;28.00;26.50;;;;;15.61;64.53;101927.03;5013611;28;46915;-69
2022/05/08 01:30:09;;;;;;;;;23.33;22.33;;;;;14.62;64.42;101752.59;5004576;28;45438;-70
2022/05/08 01:32:35;;;;;;;;;21.33;18.67;;;;;15.34;64.18;101872.41;5015130;28;45463;-69
2022/05/08 01:35:00;;;;;;;;;28.33;26.67;;;;;15.41;64.88;101927.09;5016879;28;45282;-70
2022/05/08 01:37:25;;;;;;;;;30.67;24.00;;;;;15.44;64.92;101924.16;5016330;28;46371;-70
2022/05/08 01:39:51;;;;;;;;;27.33;22.33;;;;;15.33;65.41;101921.63;5010296;28;45615;-71
2022/05/08 01:42:16;;;;;;;;;22.00;19.00;;;;;15.36;65.15;101929.38;5014998;28;45300;-71
2022/05/08 01:44:42;;;;;;;;;26.33;24.00;;;;;15.39;65.32;101939.78;5016184;28;45500;-69
2022/05/08 01:49:51;;;;;;;;;27.67;27.00;;;;;15.30;65.06;101907.69;5016062;28;45543;-68
2022/05/08 01:52:16;;;;;;;;;26.67;25.00;;;;;15.40;65.14;101933.44;5007749;28;45445;-69
2022/05/08 01:54:42;;;;;;;;;19.67;19.67;;;;;15.20;65.13;101915.75;5011402;28;45596;-70
2022/05/08 01:57:07;;;;;;;;;22.67;21.00;;;;;15.40;64.87;101938.81;5015698;28;46182;-69
2022/05/08 01:59:32;;;;;;;;;30.33;25.67;;;;;15.04;64.98;101878.03;4994349;28;45545;-71
2022/05/08 02:01:58;;;;;;;;;26.67;23.67;;;;;14.95;64.99;101860.13;5002592;28;45388;-69
2022/05/08 02:04:24;;;;;;;;;22.00;20.67;;;;;15.07;64.99;101893.81;5015592;28;45435;-70
2022/05/08 02:06:49;;;;;;;;;23.00;23.00;;;;;15.35;64.92;101932.19;5014166;28;46997;-72
2022/05/08 02:09:15;;;;;;;;;25.67;25.67;;;;;15.07;65.84;101891.13;5014301;28;45466;-70
2022/05/08 02:11:40;;;;;;;;;31.67;30.00;;;;;15.29;65.66;101930.97;5015759;28;45302;-70
2022/05/08 02:14:06;;;;;;;;;27.33;25.33;;;;;14.61;65.06;101807.94;5015311;28;45223;-77
2022/05/08 02:16:32;;;;;;;;;34.67;27.00;;;;;15.12;65.36;101903.09;5014972;28;46275;-69
2022/05/08 02:18:57;;;;;;;;;28.67;26.00;;;;;15.33;65.43;101927.00;5014077;28;45594;-69
2022/05/08 02:21:23;;;;;;;;;35.67;29.67;;;;;15.34;65.48;101934.03;5015759;28;45675;-69
2022/05/08 02:23:49;;;;;;;;;28.67;27.00;;;;;15.25;65.11;101909.97;5014409;28;45532;-69
2022/05/08 02:26:14;;;;;;;;;28.00;26.67;;;;;15.34;64.92;101927.84;4996344;28;48441;-71
2022/05/08 02:28:39;;;;;;;;;30.33;25.00;;;;;15.36;64.99;101945.44;4996694;28;46080;-70
2022/05/08 02:31:05;;;;;;;;;20.00;18.33;;;;;12.84;65.35;101518.84;5016236;28;45897;-69
2022/05/08 02:33:32;;;;;;;;;31.00;29.67;;;;;14.56;64.91;101817.41;5014039;28;45256;-70
2022/05/08 02:35:57;;;;;;;;;23.00;21.67;;;;;15.33;65.07;101951.09;5015428;28;46530;-69
2022/05/08 02:38:24;;;;;;;;;26.33;26.33;;;;;15.31;65.22;101945.06;5009367;28;45712;-70
2022/05/08 02:40:51;;;;;;;;;25.33;24.33;;;;;15.13;65.15;101930.72;4994459;28;45580;-69
2022/05/08 02:43:20;;;;;;;;;30.00;28.00;;;;;15.21;65.47;101954.94;4994903;28;45511;-71
2022/05/08 02:45:46;;;;;;;;;30.67;29.00;;;;;15.23;65.54;101941.41;4995752;28;45460;-70
2022/05/08 02:48:12;;;;;;;;;30.67;26.33;;;;;15.22;65.25;101940.56;5014523;28;45352;-70
2022/05/08 02:50:37;;;;;;;;;28.33;28.00;;;;;15.07;65.56;101924.13;5014538;28;45522;-69
2022/05/08 02:53:02;;;;;;;;;35.00;30.67;;;;;15.07;65.73;101933.97;5014224;28;45504;-70
2022/05/08 03:00:55;;;;;;;;;32.00;27.33;;;;;14.90;66.73;101959.66;5018465;28;45554;-69
2022/05/08 03:03:21;;;;;;;;;37.33;32.67;;;;;14.72;67.38;101950.66;5018752;28;45475;-69
2022/05/08 03:05:47;;;;;;;;;33.00;30.00;;;;;14.70;67.45;101948.13;5000156;28;46061;-70
2022/05/08 03:08:17;;;;;;;;;36.67;33.00;;;;;14.80;66.94;101956.97;5018256;28;45509;-70
2022/05/08 03:13:27;;;;;;;;;34.33;32.33;;;;;13.89;67.90;101836.97;5019272;28;45352;-70
2022/05/08 03:15:53;;;;;;;;;37.33;32.00;;;;;14.53;68.08;101956.84;5016923;28;45788;-71
2022/05/08 03:18:19;;;;;;;;;42.33;34.33;;;;;14.42;68.21;101935.56;5018189;28;45580;-70
2022/05/08 03:20:44;;;;;;;;;31.67;24.67;;;;;14.63;68.14;101955.03;5017444;28;45239;-69
2022/05/08 03:23:10;;;;;;;;;46.33;37.00;;;;;14.47;68.00;101938.69;5018023;28;45228;-70
2022/05/08 03:25:36;;;;;;;;;43.33;36.00;;;;;14.59;68.07;101948.25;5014989;28;47564;-69
2022/05/08 03:28:02;;;;;;;;;40.67;35.33;;;;;14.58;67.86;101941.19;5017911;28;45546;-70
2022/05/08 03:30:28;;;;;;;;;46.00;38.00;;;;;14.65;67.89;101963.75;5016851;28;45466;-69
2022/05/08 03:32:54;;;;;;;;;45.00;36.67;;;;;14.46;68.77;101969.94;4997169;28;45459;-70
2022/05/08 03:35:19;;;;;;;;;49.67;41.00;;;;;14.35;68.91;101931.72;5011504;28;45603;-69
2022/05/08 03:37:44;;;;;;;;;50.33;39.67;;;;;13.80;68.53;101833.28;5016565;28;45483;-70
2022/05/08 03:40:10;;;;;;;;;47.25;36.25;;;;;14.29;69.10;101950.03;5018602;28;45385;-69
2022/05/08 03:42:35;;;;;;;;;50.25;39.00;;;;;14.11;70.07;101943.66;5016541;28;45615;-69
2022/05/08 03:45:01;;;;;;;;;49.25;40.50;;;;;14.18;70.03;101950.13;5016518;28;45652;-69
2022/05/08 03:47:26;;;;;;;;;50.00;40.33;;;;;14.23;69.80;101942.56;5017829;28;45302;-70
2022/05/08 03:49:52;;;;;;;;;47.00;39.33;;;;;14.31;69.65;101950.72;5017831;28;45215;-70
2022/05/08 03:52:18;;;;;;;;;49.67;42.00;;;;;14.32;69.54;101955.09;5017224;28;45581;-70
2022/05/08 03:54:43;;;;;;;;;52.33;42.33;;;;;14.09;69.53;101920.72;4996360;28;47559;-69
2022/05/08 03:57:08;;;;;;;;;50.00;41.00;;;;;14.21;69.68;101941.00;4986520;28;45476;-70
2022/05/08 03:59:34;;;;;;;;;46.00;38.67;;;;;14.31;69.58;101957.91;5012611;28;45204;-69
2022/05/08 04:02:00;;;;;;;;;52.00;40.00;;;;;14.32;69.16;101941.72;5015495;28;45509;-70
2022/05/08 04:04:25;;;;;;;;;51.50;42.25;;;;;14.35;69.00;101943.28;5016573;28;46389;-70
2022/05/08 04:06:50;;;;;;;;;45.50;38.25;;;;;14.36;69.40;101958.34;4999236;28;45395;-71
2022/05/08 04:09:16;;;;;;;;;54.25;43.50;;;;;14.24;69.68;101949.59;5002389;28;45656;-70
2022/05/08 04:11:41;;;;;;;;;51.00;41.67;;;;;14.16;69.99;101936.06;5010308;28;45487;-70
2022/05/08 04:14:07;;;;;;;;;49.00;40.00;;;;;14.04;69.88;101929.16;5008833;28;47316;-71
2022/05/08 04:16:33;;;;;;;;;54.25;44.00;;;;;14.22;70.37;101961.44;5009080;28;45533;-71
2022/05/08 04:18:58;;;;;;;;;55.25;43.25;;;;;14.18;69.41;101944.78;5012087;28;45380;-70
2022/05/08 04:21:24;;;;;;;;;50.50;41.50;;;;;14.33;69.67;101963.97;5015399;28;45621;-70
2022/05/08 04:26:34;;;;;;;;;52.25;43.25;;;;;14.24;70.06;101965.66;5016304;28;45749;-70
2022/05/08 04:29:00;;;;;;;;;54.75;43.25;;;;;14.22;70.17;101964.94;5013266;28;45419;-70
2022/05/08 04:31:25;;;;;;;;;51.75;43.25;;;;;14.23;70.07;101968.47;5017305;28;45513;-70
2022/05/08 04:33:51;;;;;;;;;57.50;45.50;;;;;14.19;70.40;101967.03;5017015;28;46420;-71
2022/05/08 04:36:17;;;;;;;;;54.75;42.50;;;;;14.24;70.56;101965.66;4997887;28;45559;-69
2022/05/08 04:38:43;;;;;;;;;55.33;44.33;;;;;14.26;69.98;101968.19;5016591;28;45440;-71
2022/05/08 04:41:08;;;;;;;;;56.00;45.75;;;;;14.28;69.51;101959.03;5007452;28;45615;-70
2022/05/08 04:43:34;;;;;;;;;59.75;46.25;;;;;14.33;69.51;101969.31;5014717;28;47598;-70
2022/05/08 04:45:59;;;;;;;;;57.25;45.25;;;;;14.19;69.90;101941.13;5016045;28;45499;-69
2022/05/08 04:48:25;;;;;;;;;58.75;45.50;;;;;14.28;69.66;101961.72;5017343;28;45326;-70
2022/05/08 04:50:50;;;;;;;;;53.50;43.25;;;;;14.48;69.35;101977.81;5015484;28;45485;-69
2022/05/08 04:53:16;;;;;;;;;55.25;44.50;;;;;14.38;69.26;101960.88;5014968;28;45713;-68
2022/05/08 04:55:44;;;;;;;;;49.75;40.50;;;;;14.46;69.29;101987.81;4995940;28;45440;-70
2022/05/08 04:58:10;;;;;;;;;55.75;45.50;;;;;14.39;68.94;101983.97;4979873;28;45516;-72
2022/05/08 05:00:35;;;;;;;;;55.75;44.00;;;;;14.08;69.48;101933.25;4987174;28;45691;-69
2022/05/08 05:03:02;;;;;;;;;55.00;44.50;;;;;14.25;69.14;101948.63;5015160;28;46066;-70
2022/05/08 05:05:27;;;;;;;;;56.25;45.25;;;;;14.41;69.10;101965.94;4999390;28;45243;-70
2022/05/08 05:07:53;;;;;;;;;58.25;46.25;;;;;14.59;68.95;101999.09;5009941;28;45488;-70
2022/05/08 05:10:19;;;;;;;;;54.00;43.50;;;;;14.56;69.20;102004.72;4997668;28;45448;-70
2022/05/08 05:12:45;;;;;;;;;58.00;45.25;;;;;14.55;68.84;101989.66;5009595;28;45560;-71
2022/05/08 05:15:11;;;;;;;;;60.25;47.25;;;;;14.74;68.59;102004.88;5000462;28;45533;-75
2022/05/08 05:17:37;;;;;;;;;61.00;48.75;;;;;14.65;68.40;101998.56;4982381;28;45594;-70
2022/05/08 05:20:04;;;;;;;;;55.00;43.00;;;;;14.66;68.64;102007.44;5004655;28;45591;-71
2022/05/08 05:22:29;;;;;;;;;65.75;50.50;;;;;14.11;68.83;101927.63;4988894;28;47692;-69
2022/05/08 05:24:56;;;;;;;;;61.25;50.00;;;;;14.61;68.32;101991.75;4994283;28;45517;-69
2022/05/08 05:27:22;;;;;;;;;60.75;47.50;;;;;14.79;68.02;102016.84;5008024;28;45207;-71
2022/05/08 05:29:48;;;;;;;;;60.75;48.75;;;;;14.41;67.76;101941.84;4994483;28;45619;-71
2022/05/08 05:32:13;;;;;;;;;53.25;45.25;;;;;14.85;67.89;102019.00;4992078;28;46662;-69
2022/05/08 05:34:39;;;;;;;;;54.75;42.75;;;;;14.73;68.05;102014.75;4993302;28;46147;-69
2022/05/08 05:37:04;;;;;;;;;56.00;45.67;;;;;13.97;67.94;101899.44;4995862;28;45322;-70
2022/05/08 05:39:30;;;;;;;;;54.00;45.00;;;;;14.46;68.79;102011.91;4996186;28;45334;-69
2022/05/08 05:41:55;;;;;;;;;55.25;45.25;;;;;14.45;68.90;102020.94;4995650;28;48176;-68
2022/05/08 05:44:23;;;;;;;;;55.50;44.25;;;;;14.12;69.32;101987.28;4997299;28;45213;-69
2022/05/08 05:49:32;;;;;;;;;61.00;47.25;;;;;14.30;69.79;102012.41;4997256;28;45399;-69
2022/05/08 05:52:02;;;;;;;;;58.00;46.25;;;;;14.47;69.72;102045.72;4995844;28;45350;-69
2022/05/08 05:54:28;;;;;;;;;57.00;44.75;;;;;14.31;69.50;102011.41;5012819;28;45503;-69
2022/05/08 05:56:53;;;;;;;;;55.75;45.00;;;;;14.25;69.96;102011.97;5015171;28;45382;-69
2022/05/08 05:59:19;;;;;;;;;59.25;48.25;;;;;14.30;69.73;102009.72;5016900;28;45495;-71
2022/05/08 06:01:45;;;;;;;;;61.25;48.00;;;;;14.14;70.00;101994.19;5015579;28;47768;-69
2022/05/08 06:04:10;;;;;;;;;57.50;47.00;;;;;14.36;70.22;102049.28;4987013;28;45979;-70
2022/05/08 06:06:36;;;;;;;;;56.75;45.50;;;;;14.18;70.11;102013.47;5012028;28;45559;-70
2022/05/08 06:09:01;;;;;;;;;60.75;46.50;;;;;14.10;69.69;101994.59;4996851;28;45449;-69
2022/05/08 06:11:27;;;;;;;;;57.00;44.50;;;;;14.45;69.88;102053.88;4996762;28;45997;-68
2022/05/08 06:13:52;;;;;;;;;54.25;43.75;;;;;14.39;69.71;102038.31;4984786;28;45440;-68
2022/05/08 06:16:18;;;;;;;;;56.75;44.50;;;;;14.29;69.47;102024.09;4981233;28;45600;-71
2022/05/08 06:18:44;;;;;;;;;59.50;45.25;;;;;14.59;69.50;102057.97;5005047;28;45355;-69
2022/05/08 06:21:10;;;;;;;;;62.00;48.25;;;;;14.39;69.00;102008.88;4995605;28;45611;-70
2022/05/08 06:23:35;;;;;;;;;55.25;43.75;;;;;14.73;68.52;102054.06;4998694;28;45428;-69
2022/05/08 06:26:02;;;;;;;;;41.75;30.75;;;;;14.69;68.55;102034.75;5016344;28;45458;-68
2022/05/08 06:28:28;;;;;;;;;56.25;45.00;;;;;14.79;68.59;102054.34;5018309;28;45174;-69
2022/05/08 06:30:53;;;;;;;;;56.50;45.50;;;;;14.67;68.27;102041.25;5018128;28;47904;-69
2022/05/08 06:33:19;;;;;;;;;56.33;43.67;;;;;14.72;68.56;102045.19;5010675;28;45451;-69
2022/05/08 06:35:44;;;;;;;;;58.00;48.00;;;;;14.80;68.39;102066.72;4997945;28;45474;-69
2022/05/08 06:38:10;;;;;;;;;59.75;49.75;;;;;14.73;68.43;102052.22;5015075;28;45470;-70
2022/05/08 06:40:36;;;;;;;;;59.67;45.33;;;;;14.78;67.99;102049.97;4998460;28;47148;-69
2022/05/08 06:43:02;;;;;;;;;51.50;41.50;;;;;14.96;67.60;102062.66;4999148;28;45278;-70
2022/05/08 06:45:28;;;;;;;;;55.33;43.67;;;;;14.76;68.21;102051.94;4989396;28;45324;-70
2022/05/08 06:47:53;;;;;;;;;59.00;46.00;;;;;14.79;68.01;102046.31;4995188;28;45227;-69
2022/05/08 06:50:19;;;;;;;;;52.00;42.75;;;;;14.92;67.98;102056.75;4980063;28;46586;-68
2022/05/08 06:52:45;;;;;;;;;59.67;46.00;;;;;14.93;67.87;102068.31;4980178;28;45369;-69
2022/05/08 06:55:14;;;;;;;;;56.50;44.50;;;;;14.94;67.64;102053.94;4990159;28;45316;-70
2022/05/08 06:57:42;;;;;;;;;56.67;44.00;;;;;14.83;67.51;102039.72;4999506;28;45366;-70
2022/05/08 07:02:52;;;;;;;;;52.00;43.67;;;;;14.81;66.93;102017.56;4999569;28;45439;-70
2022/05/08 07:05:18;;;;;;;;;53.75;44.25;;;;;14.78;66.96;102017.84;4992177;28;45508;-71
2022/05/08 07:07:44;;;;;;;;;57.00;44.00;;;;;14.76;67.43;102041.22;4998191;28;45480;-69
2022/05/08 07:10:10;;;;;;;;;58.67;47.00;;;;;14.64;68.02;102028.97;4979652;28;46026;-69
2022/05/08 07:12:36;;;;;;;;;51.00;40.25;;;;;15.02;67.81;102080.88;4984363;28;45553;-69
2022/05/08 07:15:05;;;;;;;;;46.00;38.67;;;;;14.89;67.30;102059.72;4981118;28;45429;-72
2022/05/08 07:17:31;;;;;;;;;55.67;45.00;;;;;14.96;67.26;102073.38;4996054;28;45469;-68
2022/05/08 07:19:57;;;;;;;;;42.00;35.67;;;;;15.04;67.39;102093.13;5005139;28;47047;-70
2022/05/08 07:22:23;;;;;;;;;51.67;45.00;;;;;14.64;67.54;102033.50;4988096;28;45406;-69
2022/05/08 07:24:49;;;;;;;;;53.67;44.67;;;;;14.97;67.27;102075.91;4994012;28;45499;-69
2022/05/08 07:27:14;;;;;;;;;56.00;45.33;;;;;14.91;67.60;102087.19;5016843;28;45265;-69
2022/05/08 07:29:44;;;;;;;;;50.75;42.00;;;;;14.91;67.99;102095.22;5018124;28;45429;-70
2022/05/08 07:32:10;;;;;;;;;51.67;41.00;;;;;15.02;67.27;102092.44;5010388;28;45323;-70
2022/05/08 07:37:20;;;;;;;;;56.25;44.25;;;;;14.87;67.81;102092.00;5009407;28;45549;-68
2022/05/08 07:39:48;;;;;;;;;54.00;44.33;;;;;15.00;67.87;102101.56;5014318;28;45469;-69
2022/05/08 07:42:13;;;;;;;;;42.50;35.00;;;;;14.96;67.40;102089.44;4983670;28;45386;-69
2022/05/08 07:44:39;;;;;;;;;43.00;38.33;;;;;14.96;67.46;102076.06;5008873;28;45254;-69
2022/05/08 07:47:04;;;;;;;;;53.33;43.00;;;;;14.79;67.37;102057.00;4995331;28;45499;-67
2022/05/08 07:49:30;;;;;;;;;54.75;44.50;;;;;15.01;67.55;102087.19;5017450;28;45531;-68
2022/05/08 07:51:55;;;;;;;;;55.00;43.67;;;;;15.08;67.26;102096.38;5016923;28;45494;-71
2022/05/08 07:54:21;;;;;;;;;49.33;40.67;;;;;15.15;67.30;102100.19;4996746;28;45511;-69
2022/05/08 07:56:46;;;;;;;;;52.25;44.50;;;;;15.36;66.59;102114.28;4999604;28;45457;-69
2022/05/08 07:59:12;;;;;;;;;54.67;44.67;;;;;15.28;66.48;102108.78;4998733;28;45733;-69
2022/05/08 08:01:38;;;;;;;;;55.00;44.00;;;;;15.13;66.28;102065.50;4998574;28;45244;-69
2022/05/08 08:04:09;;;;;;;;;60.25;46.25;;;;;15.45;65.84;102121.47;4980756;28;45345;-71
2022/05/08 08:06:35;;;;;;;;;56.33;45.00;;;;;15.51;65.91;102112.00;4997311;28;45764;-70
2022/05/08 08:09:04;;;;;;;;;53.25;40.75;;;;;15.60;65.66;102115.69;5017740;28;46198;-70
2022/05/08 08:11:31;;;;;;;;;63.00;47.50;;;;;15.68;65.48;102107.78;5016687;28;45417;-70
2022/05/08 08:13:56;;;;;;;;;54.33;44.33;;;;;15.05;65.02;101984.16;5007121;28;45175;-71
2022/05/08 08:16:22;;;;;;;;;50.67;43.67;;;;;15.52;64.38;102066.28;4987016;28;45649;-70
2022/05/08 08:18:48;;;;;;;;;61.67;46.33;;;;;15.74;64.33;102062.47;5016182;28;46505;-71
2022/05/08 08:21:15;;;;;;;;;52.33;41.00;;;;;16.22;64.24;102124.97;5016444;28;45503;-70
2022/05/08 08:23:42;;;;;;;;;44.67;37.33;;;;;16.37;63.41;102124.34;5012028;28;45266;-70
2022/05/08 08:26:09;;;;;;;;;51.67;42.67;;;;;16.33;62.93;102108.72;5011376;28;45401;-69
2022/05/08 08:28:35;;;;;;;;;57.67;44.33;;;;;16.29;62.97;102118.06;5017008;28;46162;-70
2022/05/08 08:31:00;;;;;;;;;52.00;41.67;;;;;16.17;62.87;102114.69;5014999;28;45472;-70
2022/05/08 08:33:26;;;;;;;;;45.67;37.67;;;;;16.26;63.10;102123.72;5016631;28;45358;-70
2022/05/08 08:35:52;;;;;;;;;51.67;41.33;;;;;16.23;62.78;102100.72;5017678;28;45464;-69
2022/05/08 08:38:17;;;;;;;;;52.00;40.33;;;;;16.33;62.68;102116.75;5016643;28;46203;-69
2022/05/08 08:40:48;;;;;;;;;50.33;39.00;;;;;16.34;62.84;102118.44;5016049;28;45647;-70
2022/05/08 08:43:19;;;;;;;;;51.00;39.00;;;;;16.25;62.69;102100.56;5014827;28;45491;-72
2022/05/08 08:48:31;;;;;;;;;42.33;35.33;;;;;16.24;62.58;102104.25;5017452;28;45326;-70
2022/05/08 08:50:57;;;;;;;;;53.33;43.33;;;;;16.43;62.12;102131.00;4999505;28;45380;-73
2022/05/08 08:53:24;;;;;;;;;50.67;41.00;;;;;16.48;62.29;102128.69;5016614;28;45257;-72
2022/05/08 08:55:51;;;;;;;;;52.00;36.67;;;;;16.57;61.89;102135.84;5017553;28;45484;-69
2022/05/08 08:58:17;;;;;;;;;51.67;39.00;;;;;16.57;61.62;102135.00;5017318;28;46590;-72
2022/05/08 09:00:43;;;;;;;;;50.00;39.67;;;;;16.28;61.95;102063.53;5015460;28;45823;-76
2022/05/08 09:03:09;;;;;;;;;43.00;34.67;;;;;16.58;61.89;102124.09;5020819;28;45395;-73
2022/05/08 09:05:35;;;;;;;;;47.00;39.33;;;;;16.65;62.13;102119.84;5037372;28;45425;-73
2022/05/08 09:08:01;;;;;;;;;54.33;42.67;;;;;16.75;61.41;102102.84;5035680;28;47317;-71
2022/05/08 09:10:35;;;;;;;;;52.00;43.33;;;;;16.85;60.94;102119.78;5013862;28;45652;-73
2022/05/08 09:13:07;;;;;;;;;54.33;42.67;;;;;16.78;61.16;102118.66;4999016;28;45351;-71
2022/05/08 09:15:37;;;;;;;;;55.67;42.33;;;;;16.87;60.75;102107.03;5014806;28;45505;-74
2022/05/08 09:18:10;;;;;;;;;52.00;42.00;;;;;16.99;60.59;102120.06;4994979;28;47134;-74
2022/05/08 09:20:39;;;;;;;;;50.50;41.00;;;;;17.00;60.41;102120.91;4997718;28;45819;-72
2022/05/08 09:23:10;;;;;;;;;54.67;42.67;;;;;16.96;60.23;102124.91;4999152;28;45383;-72
2022/05/08 09:25:56;;;;;;;;;54.00;40.67;;;;;17.03;60.47;102123.31;5008511;28;45333;-73
2022/05/08 09:28:29;;;;;;;;;54.67;44.00;;;;;17.10;60.42;102123.53;4993316;28;47621;-73
2022/05/08 09:30:55;;;;;;;;;49.67;39.67;;;;;17.28;59.74;102111.78;5016374;28;45563;-70
2022/05/08 09:33:26;;;;;;;;;54.33;42.33;;;;;17.34;59.32;102118.38;4999374;28;45321;-71
2022/05/08 09:35:52;;;;;;;;;51.00;41.67;;;;;17.26;58.63;102073.47;5010650;28;45606;-74
2022/05/08 09:38:17;;;;;;;;;49.67;40.00;;;;;17.53;58.53;102106.63;5013705;28;46515;-71
2022/05/08 09:40:45;;;;;;;;;45.67;36.00;;;;;17.78;58.39;102118.41;5015826;28;45443;-70
2022/05/08 09:43:29;;;;;;;;;52.33;41.00;;;;;17.72;58.01;102109.16;4999016;28;45378;-71
2022/05/08 09:45:59;;;;;;;;;49.67;40.00;;;;;17.69;58.06;102103.25;5015609;28;45481;-72
2022/05/08 09:48:29;;;;;;;;;58.33;45.00;;;;;17.57;57.82;102062.25;5014803;28;47450;-71
2022/05/08 09:51:06;;;;;;;;;57.33;44.33;;;;;18.00;57.05;102120.56;5016447;28;45330;-72
2022/05/08 09:53:34;;;;;;;;;49.33;41.00;;;;;18.04;57.37;102110.38;5016697;28;45476;-71
2022/05/08 09:56:02;;;;;;;;;51.33;42.00;;;;;18.13;56.62;102128.22;5017132;28;45248;-70
2022/05/08 09:58:28;;;;;;;;;55.67;42.33;;;;;17.85;56.99;102074.59;4998261;28;46363;-71
2022/05/08 10:00:56;;;;;;;;;50.00;42.00;;;;;18.28;56.55;102115.88;5016728;28;45521;-71
2022/05/08 10:03:23;;;;;;;;;49.67;38.67;;;;;18.40;56.19;102103.78;5000125;28;45291;-73
2022/05/08 10:05:49;;;;;;;;;58.00;44.67;;;;;18.46;55.84;102083.47;5020394;28;45303;-72
2022/05/08 10:08:17;;;;;;;;;50.33;40.00;;;;;18.73;54.96;102107.47;5018623;28;48326;-71
2022/05/08 10:14:00;;;;;;;;;49.00;38.67;;;;;18.77;54.44;102097.22;5020104;28;45599;-70
2022/05/08 10:16:53;;;;;;;;;52.67;41.67;;;;;18.81;55.09;102096.72;5020278;28;45492;-72
2022/05/08 10:19:24;;;;;;;;;52.33;43.67;;;;;19.10;54.50;102098.97;5020178;28;46080;-70
2022/05/08 10:21:52;;;;;;;;;51.00;40.33;;;;;19.23;54.19;102093.09;5020414;28;45452;-73
2022/05/08 10:24:36;;;;;;;;;49.33;38.00;;;;;19.29;52.69;102099.66;5019995;28;45532;-70
2022/05/08 10:27:08;;;;;;;;;45.00;38.00;;;;;19.19;53.20;102086.31;5020097;28;45226;-72
2022/05/08 10:29:33;;;;;;;;;56.00;42.67;;;;;19.05;53.10;102054.66;5019344;28;46518;-72
2022/05/08 10:31:58;;;;;;;;;49.67;39.33;;;;;19.35;53.33;102094.41;5019710;28;45209;-70
2022/05/08 10:34:34;;;;;;;;;52.33;44.67;;;;;19.48;52.55;102104.72;5020087;28;45266;-71
2022/05/08 10:37:12;;;;;;;;;54.00;41.00;;;;;19.49;52.45;102092.91;5020286;28;45448;-71
2022/05/08 10:39:41;;;;;;;;;52.67;43.00;;;;;19.41;52.18;102068.63;5001258;28;48557;-69
2022/05/08 10:42:29;;;;;;;;;54.33;45.00;;;;;19.45;52.45;102094.28;5019341;28;45479;-71
2022/05/08 10:44:59;;;;;;;;;50.67;40.67;;;;;18.63;52.61;101942.47;5001536;28;46341;-71
2022/05/08 10:47:33;;;;;;;;;52.00;42.67;;;;;19.54;52.02;102101.34;5019838;28;45609;-71
2022/05/08 10:49:59;;;;;;;;;54.00;43.33;;;;;19.53;52.44;102080.75;5019361;28;45457;-72
2022/05/08 10:52:25;;;;;;;;;52.33;43.00;;;;;19.55;51.98;102091.41;5001553;28;46240;-72
2022/05/08 10:55:01;;;;;;;;;51.33;42.33;;;;;19.38;52.56;102082.44;5018466;28;45417;-71
2022/05/08 10:57:37;;;;;;;;;53.00;42.00;;;;;19.56;52.37;102091.25;5020197;28;45464;-71
2022/05/08 11:00:11;;;;;;;;;51.00;40.67;;;;;19.66;52.03;102088.38;5019167;28;46261;-73
2022/05/08 11:02:47;;;;;;;;;50.00;41.67;;;;;19.54;52.02;102063.59;5019197;28;45484;-71
2022/05/08 11:05:17;;;;;;;;;53.33;41.33;;;;;19.18;52.23;102000.22;5001780;28;45491;-74
2022/05/08 11:07:51;;;;;;;;;49.33;37.67;;;;;19.81;52.15;102085.81;5001747;28;45492;-71
2022/05/08 11:10:18;;;;;;;;;49.33;39.67;;;;;18.46;51.51;101854.56;5019743;28;45564;-73
2022/05/08 11:12:59;;;;;;;;;54.33;43.33;;;;;19.50;51.49;102000.19;5001294;28;45760;-70
2022/05/08 11:15:25;;;;;;;;;52.67;41.67;;;;;20.02;51.14;102081.56;4999946;28;45425;-73
2022/05/08 11:18:09;;;;;;;;;50.00;41.00;;;;;20.11;51.32;102085.06;5018027;28;45381;-71
2022/05/08 11:20:45;;;;;;;;;51.00;42.00;;;;;20.03;51.22;102082.41;5000965;28;47602;-71
2022/05/08 11:23:12;;;;;;;;;57.67;45.33;;;;;20.06;51.12;102084.75;5000747;28;45326;-71
2022/05/08 11:25:38;;;;;;;;;55.33;42.33;;;;;20.08;51.20;102082.72;5018895;28;45353;-73
2022/05/08 11:28:04;;;;;;;;;51.33;43.33;;;;;20.03;51.32;102041.91;5019187;28;45290;-72
2022/05/08 11:30:32;;;;;;;;;50.33;42.67;;;;;20.26;50.82;102075.22;5018895;28;45651;-72
2022/05/08 11:36:06;;;;;;;;;45.67;39.67;;;;;20.20;50.31;102062.38;5018824;28;45304;-73
2022/05/08 11:38:46;;;;;;;;;53.00;41.00;;;;;20.23;50.48;102070.16;5018826;28;45611;-71
2022/05/08 11:41:13;;;;;;;;;50.67;42.33;;;;;19.96;50.87;102065.19;5017427;28;47406;-73